createdAt,value
2017-08-22T00:01:55.654Z,64.10
2017-08-22T00:04:24.096Z,64.30
2017-08-22T00:06:51.612Z,64.30
2017-08-22T00:09:19.129Z,64.20
2017-08-22T00:11:54.249Z,64.50
2017-08-22T00:14:21.739Z,65.40
2017-08-22T00:16:55.218Z,64.90
2017-08-22T00:19:22.702Z,65.10
2017-08-22T00:21:56.488Z,65.60
2017-08-22T00:24:33.752Z,65.70
2017-08-22T00:27:01.529Z,66.10
2017-08-22T00:29:29.032Z,66.30
2017-08-22T00:32:03.811Z,66.30
2017-08-22T00:34:31.294Z,66.70
2017-08-22T00:37:05.126Z,66.80
2017-08-22T00:39:32.615Z,67.00
2017-08-22T00:42:06.471Z,67.60
2017-08-22T00:44:33.976Z,67.90
2017-08-22T00:47:04.436Z,68.40
2017-08-22T00:49:35.072Z,68.40
2017-08-22T00:52:05.704Z,68.40
2017-08-22T00:54:33.474Z,68.40
2017-08-22T00:57:03.890Z,69.10
2017-08-22T00:59:31.370Z,69.10
2017-08-22T01:02:05.303Z,69.20
2017-08-22T01:04:32.803Z,69.10
2017-08-22T01:07:00.606Z,69.40
2017-08-22T01:09:34.394Z,69.70
2017-08-22T01:12:02.179Z,69.60
2017-08-22T01:14:29.678Z,69.80
2017-08-22T01:17:04.727Z,70.00
2017-08-22T01:19:32.271Z,70.10
2017-08-22T01:21:59.763Z,70.20
2017-08-22T01:24:34.091Z,70.50
2017-08-22T01:27:01.594Z,70.90
2017-08-22T01:29:29.453Z,70.90
2017-08-22T01:32:03.911Z,71.00
2017-08-22T01:34:31.741Z,70.90
2017-08-22T01:36:59.232Z,70.90
2017-08-22T01:39:34.163Z,71.10
2017-08-22T01:42:04.908Z,71.10
2017-08-22T01:44:32.429Z,71.30
2017-08-22T01:47:05.945Z,71.60
2017-08-22T01:49:34.648Z,71.80
2017-08-22T01:52:04.952Z,71.90
2017-08-22T01:54:33.954Z,71.70
2017-08-22T01:57:01.796Z,71.70
2017-08-22T01:59:35.305Z,71.80
2017-08-22T02:02:04.488Z,71.80
2017-08-22T02:04:31.984Z,72.10
2017-08-22T02:06:59.473Z,72.40
2017-08-22T02:09:26.984Z,72.30
2017-08-22T02:12:04.762Z,72.30
2017-08-22T02:14:32.285Z,72.40
2017-08-22T02:16:59.773Z,72.30
2017-08-22T02:19:27.648Z,72.30
2017-08-22T02:22:05.338Z,72.50
2017-08-22T02:24:33.217Z,72.70
2017-08-22T02:27:00.699Z,72.90
2017-08-22T02:29:28.191Z,72.90
2017-08-22T02:32:03.945Z,73.00
2017-08-22T02:34:34.751Z,73.10
2017-08-22T02:37:05.377Z,73.10
2017-08-22T02:39:33.978Z,73.10
2017-08-22T02:42:01.756Z,73.10
2017-08-22T02:44:34.884Z,73.10
2017-08-22T02:47:02.738Z,73.40
2017-08-22T02:49:32.336Z,73.50
2017-08-22T02:52:06.249Z,73.50
2017-08-22T02:54:33.772Z,73.60
2017-08-22T02:57:01.266Z,73.50
2017-08-22T02:59:28.771Z,73.80
2017-08-22T03:02:03.700Z,74.00
2017-08-22T03:04:34.716Z,74.10
2017-08-22T03:07:02.203Z,74.40
2017-08-22T03:09:35.688Z,74.50
2017-08-22T03:12:03.174Z,74.70
2017-08-22T03:14:31.003Z,74.70
2017-08-22T03:17:04.479Z,74.80
2017-08-22T03:19:32.248Z,74.80
2017-08-22T03:21:59.749Z,74.80
2017-08-22T03:24:27.228Z,74.90
2017-08-22T03:26:54.730Z,74.90
2017-08-22T03:29:22.215Z,74.80
2017-08-22T03:31:56.207Z,75.40
2017-08-22T03:34:23.698Z,75.80
2017-08-22T03:36:55.115Z,76.10
2017-08-22T03:39:22.604Z,76.10
2017-08-22T03:41:50.082Z,76.10
2017-08-22T03:44:17.581Z,76.00
2017-08-22T03:46:45.131Z,76.50
2017-08-22T03:49:12.635Z,76.90
2017-08-22T03:51:40.126Z,77.00
2017-08-22T03:54:07.940Z,77.20
2017-08-22T03:56:43.987Z,77.40
2017-08-22T03:59:12.428Z,77.20
2017-08-22T04:01:46.503Z,77.30
2017-08-22T04:04:14.338Z,77.40
2017-08-22T04:06:41.840Z,77.30
2017-08-22T04:09:09.330Z,77.80
2017-08-22T04:11:44.334Z,77.90
2017-08-22T04:14:11.821Z,77.90
2017-08-22T04:16:44.957Z,77.90
2017-08-22T04:19:15.805Z,77.70
2017-08-22T04:21:44.679Z,77.80
2017-08-22T04:24:12.161Z,77.80
2017-08-22T04:26:39.647Z,77.80
2017-08-22T04:29:14.076Z,77.70
2017-08-22T04:31:41.572Z,77.80
2017-08-22T04:34:15.670Z,77.70
2017-08-22T04:36:43.176Z,77.70
2017-08-22T04:39:14.050Z,77.70
2017-08-22T04:41:41.563Z,77.60
2017-08-22T04:44:15.123Z,77.60
2017-08-22T04:46:42.627Z,77.60
2017-08-22T04:49:16.586Z,77.50
2017-08-22T04:51:44.362Z,77.50
2017-08-22T04:54:11.853Z,77.50
2017-08-22T04:56:46.006Z,77.60
2017-08-22T04:59:13.629Z,77.60
2017-08-22T05:01:41.119Z,77.80
2017-08-22T05:04:08.618Z,77.80
2017-08-22T05:06:36.102Z,77.90
2017-08-22T05:09:03.598Z,78.00
2017-08-22T05:11:34.125Z,78.00
2017-08-22T05:14:05.009Z,78.10
2017-08-22T05:16:32.501Z,78.10
2017-08-22T05:19:00.006Z,78.00
2017-08-22T05:21:34.584Z,78.00
2017-08-22T05:24:02.125Z,78.00
2017-08-22T05:26:36.378Z,78.20
2017-08-22T05:29:03.893Z,78.30
2017-08-22T05:31:31.375Z,78.20
2017-08-22T05:34:05.236Z,78.40
2017-08-22T05:36:32.737Z,79.30
2017-08-22T05:39:00.572Z,78.40
2017-08-22T05:41:28.052Z,78.40
2017-08-22T05:43:55.552Z,78.30
2017-08-22T05:46:24.354Z,78.20
2017-08-22T05:48:54.800Z,78.10
2017-08-22T05:51:24.374Z,78.20
2017-08-22T05:53:54.979Z,78.00
2017-08-22T05:56:25.993Z,78.00
2017-08-22T05:58:53.483Z,77.80
2017-08-22T06:01:20.958Z,77.80
2017-08-22T06:03:54.741Z,77.60
2017-08-22T06:06:22.238Z,77.20
2017-08-22T06:08:56.235Z,77.00
2017-08-22T06:11:23.719Z,76.70
2017-08-22T06:13:55.221Z,76.60
2017-08-22T06:16:22.720Z,76.40
2017-08-22T06:18:53.842Z,76.40
2017-08-22T06:21:21.418Z,76.10
2017-08-22T06:23:55.835Z,75.90
2017-08-22T06:26:24.388Z,75.70
2017-08-22T06:28:51.878Z,75.50
2017-08-22T06:31:19.679Z,75.30
2017-08-22T06:33:54.218Z,75.10
2017-08-22T06:36:25.439Z,74.90
2017-08-22T06:38:52.923Z,74.70
2017-08-22T06:41:20.421Z,74.70
2017-08-22T06:43:53.832Z,74.60
2017-08-22T06:46:21.325Z,74.50
2017-08-22T06:48:48.829Z,74.30
2017-08-22T06:51:16.315Z,74.30
2017-08-22T06:53:44.104Z,74.60
2017-08-22T06:56:15.382Z,74.50
2017-08-22T06:58:42.869Z,74.50
2017-08-22T07:01:10.364Z,74.50
2017-08-22T07:03:44.133Z,73.90
2017-08-22T07:06:14.907Z,73.10
2017-08-22T07:08:42.398Z,72.10
2017-08-22T07:11:09.895Z,71.60
2017-08-22T07:13:37.393Z,71.00
2017-08-22T07:16:15.245Z,70.00
2017-08-22T07:18:42.871Z,68.80
2017-08-22T07:21:10.649Z,68.30
2017-08-22T07:23:38.136Z,68.00
2017-08-22T07:26:05.625Z,67.80
2017-08-22T07:28:33.136Z,67.40
2017-08-22T07:31:00.638Z,66.60
2017-08-22T07:33:34.398Z,66.50
2017-08-22T07:36:01.871Z,65.90
2017-08-22T07:38:35.925Z,65.60
2017-08-22T07:41:03.424Z,65.40
2017-08-22T07:43:34.162Z,65.10
2017-08-22T07:46:01.705Z,63.60
2017-08-22T07:48:35.169Z,63.40
2017-08-22T07:51:04.041Z,62.50
2017-08-22T07:53:31.545Z,62.00
2017-08-22T07:56:05.284Z,62.00
2017-08-22T07:58:33.884Z,61.80
2017-08-22T08:01:01.378Z,60.60
2017-08-22T08:03:28.885Z,60.50
2017-08-22T08:05:56.368Z,60.00
2017-08-22T08:08:23.870Z,60.20
2017-08-22T08:10:51.366Z,59.80
2017-08-22T08:13:18.872Z,59.70
2017-08-22T08:15:46.357Z,59.60
2017-08-22T08:18:14.178Z,59.40
2017-08-22T08:20:41.671Z,59.10
2017-08-22T08:23:15.472Z,59.00
2017-08-22T08:25:42.974Z,58.50
2017-08-22T08:28:10.503Z,57.80
2017-08-22T08:30:37.999Z,57.40
2017-08-22T08:33:15.424Z,57.00
2017-08-22T08:35:44.323Z,56.90
2017-08-22T08:38:15.082Z,56.70
2017-08-22T08:40:46.175Z,56.70
2017-08-22T08:43:14.402Z,55.30
2017-08-22T08:45:45.135Z,54.30
2017-08-22T08:48:13.854Z,52.90
2017-08-22T08:50:44.361Z,52.10
2017-08-22T08:53:11.878Z,50.40
2017-08-22T08:55:39.364Z,49.90
2017-08-22T08:58:06.873Z,48.70
2017-08-22T09:00:34.372Z,47.10
2017-08-22T09:03:04.984Z,45.80
2017-08-22T09:05:32.471Z,44.00
2017-08-22T09:08:00.295Z,42.50
2017-08-22T09:10:27.788Z,40.50
2017-08-22T09:13:05.354Z,38.60
2017-08-22T09:15:34.200Z,38.30
2017-08-22T09:18:01.720Z,36.20
2017-08-22T09:20:29.238Z,35.20
2017-08-22T09:23:04.192Z,35.70
2017-08-22T09:25:31.696Z,35.50
2017-08-22T09:27:59.199Z,35.40
2017-08-22T09:30:34.290Z,35.00
2017-08-22T09:33:01.787Z,33.90
2017-08-22T09:35:35.216Z,33.30
2017-08-22T09:38:05.774Z,33.60
2017-08-22T09:40:33.267Z,33.50
2017-08-22T09:43:00.773Z,32.70
2017-08-22T09:45:28.260Z,32.40
2017-08-22T09:47:55.761Z,32.00
2017-08-22T09:50:23.257Z,31.90
2017-08-22T09:52:50.755Z,31.70
2017-08-22T09:55:24.708Z,30.90
2017-08-22T09:57:55.845Z,30.70
2017-08-22T10:00:23.331Z,29.00
2017-08-22T10:02:54.059Z,28.80
2017-08-22T10:05:24.887Z,28.90
2017-08-22T10:07:55.428Z,29.00
2017-08-22T10:10:24.259Z,29.00
2017-08-22T10:12:54.759Z,28.80
2017-08-22T10:15:22.255Z,27.90
2017-08-22T10:17:49.755Z,27.50
2017-08-22T10:20:24.072Z,27.00
2017-08-22T10:22:54.676Z,26.90
2017-08-22T10:25:22.172Z,26.20
2017-08-22T10:27:55.587Z,26.60
2017-08-22T10:30:24.491Z,27.30
2017-08-22T10:32:51.981Z,26.80
2017-08-22T10:35:19.489Z,26.00
2017-08-22T10:37:47.000Z,24.20
2017-08-22T10:40:24.835Z,24.70
2017-08-22T10:42:52.668Z,24.50
2017-08-22T10:45:20.156Z,25.20
2017-08-22T10:47:47.649Z,24.70
2017-08-22T10:50:15.150Z,25.50
2017-08-22T10:52:44.300Z,24.90
2017-08-22T10:55:11.800Z,25.30
2017-08-22T10:57:39.305Z,25.00
2017-08-22T11:00:06.818Z,25.10
2017-08-22T11:02:44.789Z,24.10
2017-08-22T11:05:12.588Z,24.30
2017-08-22T11:07:40.080Z,24.10
2017-08-22T11:10:14.196Z,23.60
2017-08-22T11:12:44.928Z,22.80
2017-08-22T11:15:15.827Z,22.10
2017-08-22T11:17:43.326Z,22.50
2017-08-22T11:20:13.965Z,22.30
2017-08-22T11:22:41.459Z,21.90
2017-08-22T11:25:15.357Z,22.30
2017-08-22T11:27:42.865Z,22.20
2017-08-22T11:30:10.352Z,23.60
2017-08-22T11:32:43.724Z,22.80
2017-08-22T11:35:11.207Z,23.00
2017-08-22T11:37:44.871Z,22.90
2017-08-22T11:40:12.356Z,22.30
2017-08-22T11:42:39.842Z,22.00
2017-08-22T11:45:13.840Z,22.30
2017-08-22T11:47:41.331Z,21.50
2017-08-22T11:50:08.870Z,20.80
2017-08-22T11:52:36.355Z,20.90
2017-08-22T11:55:04.072Z,21.20
2017-08-22T11:57:31.565Z,21.40
2017-08-22T11:59:59.350Z,22.10
2017-08-22T12:02:33.625Z,22.40
2017-08-22T12:05:01.415Z,23.00
2017-08-22T12:07:28.903Z,23.60
2017-08-22T12:09:56.400Z,22.50
2017-08-22T12:12:24.406Z,22.70
2017-08-22T12:14:55.098Z,23.70
2017-08-22T12:17:24.002Z,24.50
2017-08-22T12:19:54.618Z,23.60
2017-08-22T12:22:26.043Z,22.60
2017-08-22T12:24:54.364Z,21.70
2017-08-22T12:27:21.853Z,20.80
2017-08-22T12:29:49.351Z,21.30
2017-08-22T12:32:23.596Z,21.10
2017-08-22T12:34:51.095Z,20.90
2017-08-22T12:37:18.590Z,21.00
2017-08-22T12:39:46.110Z,21.10
2017-08-22T12:42:14.031Z,20.40
2017-08-22T12:44:41.837Z,20.40
2017-08-22T12:47:15.554Z,20.50
2017-08-22T12:49:43.407Z,21.00
2017-08-22T12:52:10.905Z,20.70
2017-08-22T12:54:38.405Z,20.60
2017-08-22T12:57:05.923Z,20.20
2017-08-22T12:59:33.430Z,19.70
2017-08-22T13:02:04.461Z,19.60
2017-08-22T13:04:35.075Z,19.80
2017-08-22T13:07:05.627Z,19.10
2017-08-22T13:09:34.131Z,19.40
2017-08-22T13:12:01.898Z,20.00
2017-08-22T13:14:29.400Z,19.70
2017-08-22T13:17:34.827Z,21.10
2017-08-22T13:20:02.324Z,21.40
2017-08-22T13:22:36.471Z,21.10
2017-08-22T13:25:14.086Z,20.60
2017-08-22T13:27:41.957Z,20.50
2017-08-22T13:30:09.446Z,20.30
2017-08-22T13:32:44.731Z,20.20
2017-08-22T13:35:15.447Z,20.10
2017-08-22T13:37:42.957Z,20.70
2017-08-22T13:40:10.465Z,21.90
2017-08-22T13:42:45.408Z,23.00
2017-08-22T13:45:12.914Z,23.00
2017-08-22T13:47:40.408Z,23.10
2017-08-22T13:50:13.626Z,22.60
2017-08-22T13:52:44.558Z,21.70
2017-08-22T13:55:15.289Z,21.70
2017-08-22T13:57:43.990Z,20.50
2017-08-22T14:00:14.636Z,21.10
2017-08-22T14:02:42.124Z,22.00
2017-08-22T14:05:09.923Z,22.50
2017-08-22T14:07:37.417Z,21.80
2017-08-22T14:10:15.259Z,21.10
2017-08-22T14:12:42.738Z,21.20
2017-08-22T14:15:10.233Z,21.80
2017-08-22T14:17:37.726Z,21.80
2017-08-22T14:20:13.752Z,21.50
2017-08-22T14:22:41.264Z,21.20
2017-08-22T14:25:08.771Z,21.40
2017-08-22T14:27:36.738Z,20.80
2017-08-22T14:30:04.242Z,21.30
2017-08-22T14:32:31.726Z,21.30
2017-08-22T14:34:59.235Z,21.70
2017-08-22T14:37:34.486Z,21.90
2017-08-22T14:40:05.473Z,21.90
2017-08-22T14:42:34.120Z,21.40
2017-08-22T14:45:04.748Z,21.00
2017-08-22T14:47:32.246Z,20.70
2017-08-22T14:49:59.731Z,20.90
2017-08-22T14:52:33.583Z,20.60
2017-08-22T14:55:04.862Z,20.80
2017-08-22T14:57:34.454Z,21.70
2017-08-22T15:00:05.253Z,21.70
2017-08-22T15:02:32.753Z,21.70
2017-08-22T15:05:04.455Z,21.60
2017-08-22T15:07:31.964Z,21.50
2017-08-22T15:09:59.442Z,22.20
2017-08-22T15:12:26.945Z,22.30
2017-08-22T15:15:04.841Z,22.40
2017-08-22T15:17:32.344Z,22.60
2017-08-22T15:20:06.499Z,23.20
2017-08-22T15:22:44.057Z,23.20
2017-08-22T15:25:11.543Z,23.10
2017-08-22T15:27:39.296Z,23.40
2017-08-22T15:30:13.851Z,24.50
2017-08-22T15:32:45.064Z,25.00
2017-08-22T15:35:14.278Z,25.40
2017-08-22T15:37:45.202Z,25.80
2017-08-22T15:40:12.704Z,26.10
2017-08-22T15:42:40.214Z,26.60
2017-08-22T15:45:13.925Z,27.20
2017-08-22T15:47:42.206Z,28.20
2017-08-22T15:50:16.331Z,28.10
2017-08-22T15:52:43.842Z,28.00
2017-08-22T15:55:12.102Z,28.90
2017-08-22T15:57:45.684Z,28.80
2017-08-22T16:00:13.210Z,28.80
2017-08-22T16:02:44.112Z,29.40
2017-08-22T16:05:14.845Z,29.90
2017-08-22T16:07:45.377Z,30.30
2017-08-22T16:10:14.429Z,30.30
2017-08-22T16:12:45.813Z,30.80
2017-08-22T16:15:14.878Z,30.60
2017-08-22T16:17:45.295Z,31.20
2017-08-22T16:20:14.324Z,31.60
2017-08-22T16:22:45.668Z,31.90
2017-08-22T16:25:14.702Z,31.90
2017-08-22T16:27:42.955Z,31.80
2017-08-22T16:30:10.475Z,31.80
2017-08-22T16:32:44.550Z,32.50
2017-08-22T16:35:12.055Z,32.00
2017-08-22T16:37:45.996Z,31.90
2017-08-22T16:40:13.489Z,32.40
2017-08-22T16:42:44.988Z,32.60
2017-08-22T16:45:14.199Z,33.40
2017-08-22T16:47:45.413Z,32.60
2017-08-22T16:50:15.844Z,32.40
2017-08-22T16:52:44.468Z,32.60
2017-08-22T16:55:15.230Z,32.70
2017-08-22T16:57:44.180Z,33.00
2017-08-22T17:00:14.731Z,33.30
2017-08-22T17:02:45.614Z,33.10
2017-08-22T17:05:14.559Z,33.00
2017-08-22T17:07:45.087Z,33.00
2017-08-22T17:10:12.872Z,33.20
2017-08-22T17:12:40.365Z,33.60
2017-08-22T17:15:14.125Z,33.90
2017-08-22T17:17:41.625Z,34.10
2017-08-22T17:20:15.438Z,34.60
2017-08-22T17:22:42.952Z,33.90
2017-08-22T17:25:11.231Z,34.80
2017-08-22T17:27:44.360Z,34.70
2017-08-22T17:30:11.847Z,35.10
2017-08-22T17:32:45.861Z,35.50
2017-08-22T17:35:13.882Z,35.70
2017-08-22T17:37:44.613Z,36.00
2017-08-22T17:40:12.107Z,36.40
2017-08-22T17:42:45.543Z,36.90
2017-08-22T17:45:14.378Z,37.40
2017-08-22T17:47:42.267Z,37.70
2017-08-22T17:50:09.765Z,38.10
2017-08-22T17:52:44.719Z,38.60
2017-08-22T17:55:15.733Z,39.20
2017-08-22T17:57:44.738Z,39.50
2017-08-22T18:00:15.355Z,39.70
2017-08-22T18:02:42.839Z,40.00
2017-08-22T18:05:10.350Z,40.10
2017-08-22T18:07:43.617Z,40.20
2017-08-22T18:10:11.132Z,40.30
2017-08-22T18:12:44.940Z,40.40
2017-08-22T18:15:14.023Z,40.60
2017-08-22T18:17:41.520Z,40.80
2017-08-22T18:20:15.043Z,40.90
2017-08-22T18:22:43.870Z,41.00
2017-08-22T18:25:11.624Z,41.10
2017-08-22T18:27:39.116Z,41.40
2017-08-22T18:30:07.379Z,41.90
2017-08-22T18:32:44.472Z,41.90
2017-08-22T18:35:12.732Z,42.60
2017-08-22T18:37:40.226Z,42.50
2017-08-22T18:40:14.243Z,42.80
2017-08-22T18:42:45.710Z,43.30
2017-08-22T18:45:13.974Z,43.50
2017-08-22T18:47:41.458Z,43.70
2017-08-22T18:50:08.988Z,44.00
2017-08-22T18:52:36.504Z,44.20
2017-08-22T18:55:04.018Z,44.60
2017-08-22T18:57:35.118Z,44.70
2017-08-22T19:00:05.761Z,44.90
2017-08-22T19:02:34.010Z,45.10
2017-08-22T19:05:01.830Z,45.10
2017-08-22T19:07:29.325Z,45.30
2017-08-22T19:09:56.833Z,45.50
2017-08-22T19:12:24.348Z,45.70
2017-08-22T19:14:51.856Z,45.90
2017-08-22T19:17:19.381Z,46.00
2017-08-22T19:19:53.875Z,46.20
2017-08-22T19:22:21.384Z,46.90
2017-08-22T19:24:55.041Z,46.30
2017-08-22T19:27:22.962Z,46.50
2017-08-22T19:29:56.472Z,46.80
2017-08-22T19:32:24.300Z,47.00
2017-08-22T19:34:51.812Z,47.20
2017-08-22T19:37:19.365Z,47.30
2017-08-22T19:39:54.110Z,47.30
2017-08-22T19:42:21.622Z,47.20
2017-08-22T19:44:49.176Z,47.30
2017-08-22T19:47:16.675Z,47.30
2017-08-22T19:49:54.058Z,47.20
2017-08-22T19:52:21.553Z,47.40
2017-08-22T19:54:55.795Z,47.50
2017-08-22T19:57:24.064Z,47.50
2017-08-22T19:59:51.558Z,47.50
2017-08-22T20:02:19.066Z,47.70
2017-08-22T20:04:46.556Z,47.80
2017-08-22T20:07:14.065Z,48.00
2017-08-22T20:09:41.576Z,48.30
2017-08-22T20:12:15.130Z,48.40
2017-08-22T20:14:44.032Z,48.50
2017-08-22T20:17:15.040Z,48.70
2017-08-22T20:19:45.444Z,48.80
2017-08-22T20:22:14.201Z,48.90
2017-08-22T20:24:44.818Z,49.00
2017-08-22T20:27:12.328Z,49.10
2017-08-22T20:29:39.828Z,49.00
2017-08-22T20:32:14.194Z,49.00
2017-08-22T20:34:41.721Z,49.00
2017-08-22T20:37:15.556Z,49.00
2017-08-22T20:39:44.681Z,49.50
2017-08-22T20:42:12.173Z,48.90
2017-08-22T20:44:39.678Z,49.10
2017-08-22T20:47:07.187Z,49.50
2017-08-22T20:49:34.676Z,49.80
2017-08-22T20:52:05.476Z,49.60
2017-08-22T20:54:34.087Z,49.60
2017-08-22T20:57:01.651Z,49.70
2017-08-22T20:59:35.220Z,49.50
2017-08-22T21:02:04.221Z,49.70
2017-08-22T21:04:31.711Z,49.70
2017-08-22T21:06:59.210Z,49.90
2017-08-22T21:09:34.193Z,50.20
2017-08-22T21:12:01.693Z,50.80
2017-08-22T21:14:29.194Z,51.00
2017-08-22T21:17:04.288Z,51.30
2017-08-22T21:19:35.232Z,51.60
2017-08-22T21:22:03.834Z,51.70
2017-08-22T21:24:34.711Z,51.70
2017-08-22T21:27:02.302Z,52.00
2017-08-22T21:29:29.787Z,52.40
2017-08-22T21:32:04.092Z,52.80
2017-08-22T21:34:31.585Z,53.20
2017-08-22T21:37:05.503Z,53.40
2017-08-22T21:39:32.979Z,53.80
2017-08-22T21:42:00.521Z,53.70
2017-08-22T21:44:34.729Z,53.60
2017-08-22T21:47:05.824Z,53.70
2017-08-22T21:49:33.317Z,53.80
2017-08-22T21:52:00.812Z,53.90
2017-08-22T21:54:28.321Z,53.90
2017-08-22T21:56:55.836Z,54.20
2017-08-22T21:59:24.486Z,54.20
2017-08-22T22:01:51.974Z,54.30
2017-08-22T22:04:19.487Z,54.50
2017-08-22T22:06:46.966Z,55.00
2017-08-22T22:09:14.761Z,55.00
2017-08-22T22:11:42.273Z,55.30
2017-08-22T22:14:09.746Z,55.40
2017-08-22T22:16:44.211Z,55.60
2017-08-22T22:19:11.732Z,55.90
2017-08-22T22:21:39.236Z,56.40
2017-08-22T22:24:06.749Z,56.70
2017-08-22T22:26:34.268Z,57.10
2017-08-22T22:29:01.755Z,57.40
2017-08-22T22:31:35.792Z,58.00
2017-08-22T22:34:04.568Z,58.40
2017-08-22T22:36:35.732Z,58.70
2017-08-22T22:39:03.229Z,59.10
2017-08-22T22:41:33.950Z,59.50
2017-08-22T22:44:04.992Z,59.60
2017-08-22T22:46:32.491Z,60.10
2017-08-22T22:49:06.358Z,60.30
2017-08-22T22:51:33.848Z,60.50
2017-08-22T22:54:01.340Z,60.60
2017-08-22T22:56:28.839Z,60.90
2017-08-22T22:58:56.683Z,61.10
2017-08-22T23:01:34.200Z,61.30
2017-08-22T23:04:02.053Z,61.50
2017-08-22T23:06:35.706Z,61.70
2017-08-22T23:09:03.504Z,61.80
2017-08-22T23:11:34.508Z,61.90
2017-08-22T23:14:02.000Z,62.10
2017-08-22T23:16:35.351Z,62.10
2017-08-22T23:19:02.845Z,62.20
2017-08-22T23:21:36.012Z,62.30
2017-08-22T23:24:03.506Z,62.30
2017-08-22T23:26:34.532Z,62.20
2017-08-22T23:29:02.026Z,62.30
2017-08-22T23:31:35.786Z,62.30
2017-08-22T23:34:04.685Z,62.30
2017-08-22T23:36:35.636Z,62.40
2017-08-22T23:39:03.864Z,62.40
2017-08-22T23:41:31.360Z,62.60
2017-08-22T23:44:04.952Z,62.80
2017-08-22T23:46:32.446Z,63.10
2017-08-22T23:48:59.944Z,63.20
2017-08-22T23:51:33.595Z,63.20
2017-08-22T23:54:01.103Z,63.40
2017-08-22T23:56:28.628Z,63.50
2017-08-22T23:58:56.466Z,63.30
